createdAt,value
2019-02-20T00:00:09.352Z,31.40
2019-02-20T00:01:15.192Z,27.40
2019-02-20T00:02:16.972Z,32.60
2019-02-20T00:03:19.679Z,37.80
2019-02-20T00:04:21.696Z,32.20
2019-02-20T00:05:23.748Z,27.20
2019-02-20T00:06:26.072Z,30.60
2019-02-20T00:07:28.094Z,26.60
2019-02-20T00:08:31.078Z,29.40
2019-02-20T00:09:33.134Z,29.40
2019-02-20T00:10:34.991Z,29.80
2019-02-20T00:11:36.852Z,28.40
2019-02-20T00:12:39.930Z,30.40
2019-02-20T00:13:43.076Z,29.60
2019-02-20T00:14:46.770Z,33.00
2019-02-20T00:15:49.339Z,31.40
2019-02-20T00:16:51.244Z,25.80
2019-02-20T00:17:53.530Z,35.80
2019-02-20T00:18:55.309Z,31.00
2019-02-20T00:19:57.719Z,25.60
2019-02-20T00:20:59.703Z,28.80
2019-02-20T00:22:01.673Z,27.60
2019-02-20T00:23:03.528Z,29.20
2019-02-20T00:24:06.440Z,27.20
2019-02-20T00:25:08.699Z,29.60
2019-02-20T00:26:10.587Z,26.00
2019-02-20T00:27:12.471Z,27.80
2019-02-20T00:28:14.706Z,31.20
2019-02-20T00:29:16.647Z,28.80
2019-02-20T00:30:18.818Z,30.80
2019-02-20T00:31:21.123Z,28.40
2019-02-20T00:32:23.149Z,26.80
2019-02-20T00:33:24.974Z,24.80
2019-02-20T00:34:27.063Z,29.80
2019-02-20T00:35:28.882Z,27.40
2019-02-20T00:36:30.743Z,26.60
2019-02-20T00:37:32.775Z,24.20
2019-02-20T00:38:34.654Z,28.60
2019-02-20T00:39:36.625Z,26.20
2019-02-20T00:40:38.449Z,28.80
2019-02-20T00:41:40.572Z,26.20
2019-02-20T00:42:42.441Z,31.20
2019-02-20T00:43:46.592Z,32.80
2019-02-20T00:44:54.714Z,26.00
2019-02-20T00:45:59.681Z,25.40
2019-02-20T00:47:20.320Z,29.00
2019-02-20T00:48:30.095Z,30.00
2019-02-20T00:49:33.954Z,29.20
2019-02-20T00:50:37.954Z,26.00
2019-02-20T00:51:53.648Z,27.40
2019-02-20T00:53:00.323Z,27.40
2019-02-20T00:54:04.208Z,25.80
2019-02-20T00:55:07.781Z,27.80
2019-02-20T00:56:09.682Z,26.80
2019-02-20T00:57:12.113Z,25.20
2019-02-20T00:58:14.561Z,24.40
2019-02-20T00:59:18.285Z,24.00
2019-02-20T01:00:20.259Z,23.40
2019-02-20T01:01:22.375Z,27.40
2019-02-20T01:02:24.491Z,20.40
2019-02-20T01:03:26.589Z,23.60
2019-02-20T01:04:28.499Z,24.20
2019-02-20T01:05:30.531Z,27.60
2019-02-20T01:06:32.553Z,32.80
2019-02-20T01:07:35.384Z,24.40
2019-02-20T01:08:37.633Z,24.40
2019-02-20T01:09:39.736Z,26.20
2019-02-20T01:10:43.754Z,25.80
2019-02-20T01:11:45.639Z,28.60
2019-02-20T01:12:49.084Z,23.40
2019-02-20T01:13:51.133Z,18.80
2019-02-20T01:14:53.489Z,26.00
2019-02-20T01:15:55.412Z,22.80
2019-02-20T01:16:57.389Z,22.20
2019-02-20T01:18:00.543Z,25.60
2019-02-20T01:19:03.746Z,22.60
2019-02-20T01:20:08.872Z,25.40
2019-02-20T01:21:10.674Z,25.80
2019-02-20T01:22:12.505Z,22.40
2019-02-20T01:23:14.308Z,32.00
2019-02-20T01:24:16.255Z,26.20
2019-02-20T01:25:18.815Z,24.60
2019-02-20T01:26:20.613Z,25.60
2019-02-20T01:27:22.525Z,22.80
2019-02-20T01:28:24.383Z,25.40
2019-02-20T01:29:27.655Z,23.80
2019-02-20T01:30:29.327Z,23.00
2019-02-20T01:31:31.354Z,24.00
2019-02-20T01:32:40.973Z,26.20
2019-02-20T01:33:42.965Z,28.00
2019-02-20T01:34:44.901Z,26.40
2019-02-20T01:35:47.346Z,22.60
2019-02-20T01:36:50.006Z,28.60
2019-02-20T01:37:52.288Z,21.60
2019-02-20T01:38:56.137Z,25.80
2019-02-20T01:39:58.138Z,21.40
2019-02-20T01:41:00.027Z,27.80
2019-02-20T01:42:02.067Z,22.60
2019-02-20T01:43:03.949Z,25.40
2019-02-20T01:44:07.960Z,26.60
2019-02-20T01:45:09.988Z,22.40
2019-02-20T01:46:12.220Z,20.60
2019-02-20T01:47:14.036Z,19.00
2019-02-20T01:48:15.866Z,25.00
2019-02-20T01:49:18.870Z,23.20
2019-02-20T01:50:21.796Z,20.80
2019-02-20T01:51:23.951Z,23.00
2019-02-20T01:52:25.709Z,20.40
2019-02-20T01:53:27.726Z,20.80
2019-02-20T01:54:29.566Z,21.80
2019-02-20T01:55:31.591Z,19.00
2019-02-20T01:56:33.894Z,21.60
2019-02-20T01:57:35.976Z,22.40
2019-02-20T01:58:38.041Z,20.40
2019-02-20T01:59:40.161Z,25.00
2019-02-20T02:00:42.419Z,20.40
2019-02-20T02:01:44.755Z,24.40
2019-02-20T02:02:46.760Z,24.00
2019-02-20T02:03:48.639Z,20.00
2019-02-20T02:04:50.657Z,23.20
2019-02-20T02:05:52.708Z,20.80
2019-02-20T02:06:54.715Z,20.20
2019-02-20T02:07:56.985Z,24.20
2019-02-20T02:08:59.746Z,22.60
2019-02-20T02:10:03.071Z,21.60
2019-02-20T02:11:06.341Z,21.80
2019-02-20T02:12:08.782Z,18.20
2019-02-20T02:13:10.523Z,25.00
2019-02-20T02:14:12.305Z,22.40
2019-02-20T02:15:20.539Z,22.20
2019-02-20T02:16:19.517Z,21.20
2019-02-20T02:17:21.379Z,21.00
2019-02-20T02:18:23.123Z,20.80
2019-02-20T02:19:25.135Z,19.80
2019-02-20T02:20:27.327Z,23.80
2019-02-20T02:21:29.377Z,21.00
2019-02-20T02:22:31.230Z,21.00
2019-02-20T02:23:33.115Z,21.00
2019-02-20T02:24:35.031Z,22.60
2019-02-20T02:25:37.089Z,17.40
2019-02-20T02:26:39.072Z,21.00
2019-02-20T02:27:41.122Z,21.00
2019-02-20T02:28:43.036Z,20.20
2019-02-20T02:29:45.083Z,20.60
2019-02-20T02:30:47.532Z,21.60
2019-02-20T02:31:50.237Z,18.60
2019-02-20T02:32:52.070Z,19.00
2019-02-20T02:33:53.842Z,21.20
2019-02-20T02:34:56.902Z,17.60
2019-02-20T02:35:59.180Z,22.60
2019-02-20T02:37:01.060Z,21.00
2019-02-20T02:38:03.214Z,19.00
2019-02-20T02:39:06.002Z,19.80
2019-02-20T02:40:10.202Z,19.60
2019-02-20T02:41:12.544Z,19.00
2019-02-20T02:42:14.374Z,23.40
2019-02-20T02:43:16.415Z,26.00
2019-02-20T02:44:18.174Z,19.40
2019-02-20T02:45:20.133Z,21.60
2019-02-20T02:46:22.032Z,16.20
2019-02-20T02:47:23.809Z,25.20
2019-02-20T02:48:25.992Z,17.20
2019-02-20T02:49:27.996Z,19.40
2019-02-20T02:50:29.966Z,19.40
2019-02-20T02:51:31.766Z,19.80
2019-02-20T02:52:33.649Z,19.60
2019-02-20T02:53:35.723Z,22.80
2019-02-20T02:54:38.026Z,19.40
2019-02-20T02:55:39.909Z,16.60
2019-02-20T02:56:42.205Z,18.40
2019-02-20T02:57:44.297Z,20.80
2019-02-20T02:58:47.297Z,18.20
2019-02-20T02:59:49.715Z,19.20
2019-02-20T03:00:51.777Z,19.20
2019-02-20T03:01:54.114Z,18.80
2019-02-20T03:02:55.975Z,18.80
2019-02-20T03:03:57.645Z,19.00
2019-02-20T03:04:59.820Z,16.80
2019-02-20T03:06:02.969Z,18.00
2019-02-20T03:07:05.015Z,20.40
2019-02-20T03:08:06.859Z,16.20
2019-02-20T03:09:08.970Z,19.00
2019-02-20T03:10:12.001Z,19.40
2019-02-20T03:11:13.946Z,21.80
2019-02-20T03:12:16.263Z,19.40
2019-02-20T03:13:18.039Z,19.60
2019-02-20T03:14:20.152Z,17.60
2019-02-20T03:15:22.102Z,20.00
2019-02-20T03:16:24.052Z,19.00
2019-02-20T03:17:26.022Z,17.80
2019-02-20T03:18:27.907Z,18.20
2019-02-20T03:19:29.870Z,19.20
2019-02-20T03:20:32.089Z,17.00
2019-02-20T03:21:33.774Z,18.60
2019-02-20T03:22:35.729Z,19.20
2019-02-20T03:23:40.134Z,17.40
2019-02-20T03:24:41.693Z,17.20
2019-02-20T03:25:43.779Z,20.80
2019-02-20T03:26:45.876Z,17.80
2019-02-20T03:27:48.259Z,20.40
2019-02-20T03:28:51.414Z,18.60
2019-02-20T03:29:53.426Z,17.80
2019-02-20T03:30:55.326Z,18.20
2019-02-20T03:31:57.641Z,19.00
2019-02-20T03:32:59.622Z,18.80
2019-02-20T03:34:02.005Z,18.40
2019-02-20T03:35:05.126Z,16.40
2019-02-20T03:36:07.182Z,20.00
2019-02-20T03:37:08.975Z,19.00
2019-02-20T03:38:10.985Z,22.00
2019-02-20T03:39:12.830Z,16.80
2019-02-20T03:40:14.637Z,17.00
2019-02-20T03:41:16.784Z,17.80
2019-02-20T03:42:18.557Z,15.60
2019-02-20T03:43:20.556Z,17.80
2019-02-20T03:44:22.387Z,17.40
2019-02-20T03:45:24.509Z,16.60
2019-02-20T03:46:26.263Z,16.20
2019-02-20T03:47:28.068Z,20.40
2019-02-20T03:48:30.216Z,17.60
2019-02-20T03:49:31.965Z,15.60
2019-02-20T03:50:35.045Z,17.80
2019-02-20T03:51:37.422Z,17.40
2019-02-20T03:52:39.420Z,20.00
2019-02-20T03:53:51.276Z,15.60
2019-02-20T03:54:45.267Z,19.80
2019-02-20T03:55:48.543Z,16.20
2019-02-20T03:56:50.502Z,19.40
2019-02-20T03:57:52.486Z,17.80
2019-02-20T03:58:54.487Z,18.00
2019-02-20T03:59:56.737Z,16.00
2019-02-20T04:00:58.900Z,15.20
2019-02-20T04:02:01.020Z,18.40
2019-02-20T04:03:03.095Z,15.60
2019-02-20T04:04:05.027Z,19.60
2019-02-20T04:05:07.252Z,16.00
2019-02-20T04:06:09.082Z,19.40
2019-02-20T04:07:11.005Z,19.20
2019-02-20T04:08:12.775Z,21.80
2019-02-20T04:09:14.873Z,21.80
2019-02-20T04:10:16.973Z,20.40
2019-02-20T04:11:18.980Z,18.20
2019-02-20T04:12:20.885Z,18.00
2019-02-20T04:13:22.826Z,14.80
2019-02-20T04:14:25.062Z,16.20
2019-02-20T04:15:27.344Z,17.20
2019-02-20T04:16:29.006Z,18.20
2019-02-20T04:17:31.072Z,17.40
2019-02-20T04:18:33.177Z,16.20
2019-02-20T04:19:34.822Z,16.80
2019-02-20T04:20:36.992Z,18.80
2019-02-20T04:21:38.946Z,20.60
2019-02-20T04:22:40.798Z,20.60
2019-02-20T04:23:42.779Z,18.00
2019-02-20T04:24:44.525Z,15.00
2019-02-20T04:25:47.103Z,19.20
2019-02-20T04:26:48.930Z,18.00
2019-02-20T04:27:50.804Z,16.20
2019-02-20T04:28:52.905Z,18.80
2019-02-20T04:29:54.744Z,20.20
2019-02-20T04:30:56.690Z,17.00
2019-02-20T04:31:58.681Z,16.20
2019-02-20T04:33:00.448Z,18.00
2019-02-20T04:34:02.666Z,18.80
2019-02-20T04:35:04.938Z,16.00
2019-02-20T04:36:06.819Z,21.40
2019-02-20T04:37:08.813Z,20.80
2019-02-20T04:38:10.690Z,18.00
2019-02-20T04:39:12.840Z,17.60
2019-02-20T04:40:14.712Z,17.40
2019-02-20T04:41:16.532Z,21.00
2019-02-20T04:42:18.367Z,25.60
2019-02-20T04:43:20.218Z,19.80
2019-02-20T04:44:22.364Z,17.80
2019-02-20T04:45:24.333Z,16.00
2019-02-20T04:46:26.236Z,17.00
2019-02-20T04:47:28.269Z,16.40
2019-02-20T04:48:30.429Z,19.40
2019-02-20T04:49:32.585Z,18.80
2019-02-20T04:50:34.621Z,18.20
2019-02-20T04:51:36.643Z,17.80
2019-02-20T04:52:38.480Z,16.00
2019-02-20T04:53:40.905Z,17.20
2019-02-20T04:54:42.695Z,17.40
2019-02-20T04:55:44.659Z,15.20
2019-02-20T04:56:46.983Z,16.40
2019-02-20T04:58:10.862Z,15.40
2019-02-20T04:59:12.943Z,19.00
2019-02-20T05:00:14.880Z,16.80
2019-02-20T05:01:17.196Z,19.60
2019-02-20T05:02:19.354Z,17.20
2019-02-20T05:03:23.144Z,19.20
2019-02-20T05:04:25.022Z,16.40
2019-02-20T05:05:27.233Z,18.00
2019-02-20T05:06:29.582Z,18.00
2019-02-20T05:07:31.250Z,17.00
2019-02-20T05:08:33.484Z,13.80
2019-02-20T05:09:35.304Z,15.40
2019-02-20T05:10:39.274Z,18.00
2019-02-20T05:11:41.477Z,18.20
2019-02-20T05:12:43.313Z,16.60
2019-02-20T05:13:45.419Z,20.60
2019-02-20T05:14:47.844Z,18.00
2019-02-20T05:15:49.866Z,18.00
2019-02-20T05:16:51.873Z,18.20
2019-02-20T05:17:54.105Z,16.20
2019-02-20T05:18:55.758Z,15.00
2019-02-20T05:19:57.799Z,21.60
2019-02-20T05:20:59.724Z,16.60
2019-02-20T05:22:01.476Z,16.60
2019-02-20T05:23:04.010Z,15.40
2019-02-20T05:24:06.016Z,17.60
2019-02-20T05:25:07.906Z,14.60
2019-02-20T05:26:10.102Z,17.40
2019-02-20T05:27:12.280Z,17.00
2019-02-20T05:28:14.114Z,18.40
2019-02-20T05:29:16.298Z,15.20
2019-02-20T05:30:18.492Z,15.80
2019-02-20T05:31:20.392Z,17.20
2019-02-20T05:32:22.358Z,15.80
2019-02-20T05:33:24.184Z,18.20
2019-02-20T05:34:26.084Z,14.80
2019-02-20T05:35:28.226Z,19.20
2019-02-20T05:36:29.894Z,14.00
2019-02-20T05:37:31.857Z,16.00
2019-02-20T05:38:34.083Z,19.20
2019-02-20T05:39:36.173Z,17.00
2019-02-20T05:40:38.073Z,16.00
2019-02-20T05:41:40.357Z,15.20
2019-02-20T05:42:42.381Z,14.00
2019-02-20T05:43:44.537Z,18.60
2019-02-20T05:44:46.402Z,16.60
2019-02-20T05:45:48.370Z,15.40
2019-02-20T05:46:50.295Z,16.60
2019-02-20T05:47:52.388Z,16.60
2019-02-20T05:48:54.251Z,17.40
2019-02-20T05:49:56.556Z,16.00
2019-02-20T05:50:58.322Z,16.00
2019-02-20T05:52:00.432Z,15.20
2019-02-20T05:53:02.853Z,18.20
2019-02-20T05:54:05.201Z,18.20
2019-02-20T05:55:07.301Z,19.00
2019-02-20T05:56:09.397Z,16.00
2019-02-20T05:57:11.639Z,19.00
2019-02-20T05:58:13.524Z,19.40
2019-02-20T05:59:16.413Z,18.80
2019-02-20T06:00:18.578Z,17.40
2019-02-20T06:01:20.642Z,15.80
2019-02-20T06:02:24.666Z,14.60
2019-02-20T06:03:26.676Z,18.60
2019-02-20T06:04:28.909Z,17.00
2019-02-20T06:05:30.909Z,17.80
2019-02-20T06:06:32.772Z,21.00
2019-02-20T06:07:34.754Z,17.00
2019-02-20T06:08:36.602Z,18.40
2019-02-20T06:09:40.487Z,20.40
2019-02-20T06:10:42.276Z,14.20
2019-02-20T06:11:44.192Z,15.80
2019-02-20T06:12:46.157Z,19.00
2019-02-20T06:13:48.033Z,21.20
2019-02-20T06:14:50.150Z,17.40
2019-02-20T06:15:52.363Z,16.80
2019-02-20T06:16:54.258Z,18.40
2019-02-20T06:17:56.465Z,16.80
2019-02-20T06:18:58.709Z,15.80
2019-02-20T06:20:00.884Z,16.00
2019-02-20T06:21:02.891Z,18.20
2019-02-20T06:22:05.040Z,16.40
2019-02-20T06:23:07.773Z,17.20
2019-02-20T06:24:10.649Z,15.80
2019-02-20T06:25:12.683Z,16.00
2019-02-20T06:26:14.562Z,17.40
2019-02-20T06:27:16.905Z,15.60
2019-02-20T06:28:19.214Z,17.60
2019-02-20T06:29:20.966Z,15.80
2019-02-20T06:30:22.965Z,19.20
2019-02-20T06:31:24.787Z,17.00
2019-02-20T06:32:27.029Z,16.60
2019-02-20T06:33:28.966Z,19.40
2019-02-20T06:34:30.925Z,17.40
2019-02-20T06:35:32.907Z,17.80
2019-02-20T06:36:34.885Z,19.60
2019-02-20T06:37:36.846Z,17.60
2019-02-20T06:38:38.821Z,18.20
2019-02-20T06:39:41.614Z,15.80
2019-02-20T06:40:43.529Z,19.00
2019-02-20T06:41:45.823Z,16.60
2019-02-20T06:42:48.106Z,21.00
2019-02-20T06:43:50.740Z,22.80
2019-02-20T06:44:52.636Z,17.20
2019-02-20T06:45:54.507Z,16.80
2019-02-20T06:46:56.429Z,21.80
2019-02-20T06:47:58.306Z,14.40
2019-02-20T06:49:00.422Z,19.00
2019-02-20T06:50:04.609Z,18.20
2019-02-20T06:51:06.440Z,14.20
2019-02-20T06:52:08.348Z,17.40
2019-02-20T06:53:10.544Z,15.80
2019-02-20T06:54:13.071Z,20.20
2019-02-20T06:55:15.326Z,18.00
2019-02-20T06:56:17.340Z,17.80
2019-02-20T06:57:21.142Z,19.00
2019-02-20T06:58:24.487Z,17.20
2019-02-20T06:59:26.253Z,15.40
2019-02-20T07:00:29.434Z,19.00
2019-02-20T07:01:31.128Z,19.00
2019-02-20T07:02:33.484Z,17.40
2019-02-20T07:03:35.375Z,16.20
2019-02-20T07:04:37.164Z,16.40
2019-02-20T07:05:40.472Z,16.60
2019-02-20T07:06:51.222Z,16.80
2019-02-20T07:08:38.302Z,17.80
2019-02-20T07:10:20.991Z,15.80
2019-02-20T07:11:42.888Z,17.40
2019-02-20T07:12:49.028Z,14.20
2019-02-20T07:14:30.295Z,22.60
2019-02-20T07:15:58.395Z,14.40
2019-02-20T07:17:33.351Z,15.60
2019-02-20T07:18:46.754Z,18.40
2019-02-20T07:20:01.680Z,18.40
2019-02-20T07:21:39.013Z,17.60
2019-02-20T07:23:06.643Z,24.40
2019-02-20T07:24:26.321Z,18.00
2019-02-20T07:25:45.326Z,20.80
2019-02-20T07:27:10.071Z,17.80
2019-02-20T07:28:29.147Z,23.20
2019-02-20T07:29:43.525Z,19.80
2019-02-20T07:30:46.404Z,19.20
2019-02-20T07:31:48.263Z,21.00
2019-02-20T07:32:50.221Z,21.40
2019-02-20T07:33:51.969Z,18.80
2019-02-20T07:34:54.208Z,19.20
2019-02-20T07:35:56.072Z,23.60
2019-02-20T07:36:57.987Z,25.60
2019-02-20T07:37:59.938Z,22.00
2019-02-20T07:39:03.998Z,24.60
2019-02-20T07:40:08.085Z,20.00
2019-02-20T07:41:11.901Z,23.20
2019-02-20T07:42:14.486Z,20.80
2019-02-20T07:43:16.415Z,26.40
2019-02-20T07:44:18.287Z,19.80
2019-02-20T07:45:20.404Z,22.60
2019-02-20T07:46:22.274Z,21.60
2019-02-20T07:47:24.338Z,21.80
2019-02-20T07:48:27.228Z,27.00
2019-02-20T07:49:29.234Z,24.40
2019-02-20T07:50:31.342Z,20.20
2019-02-20T07:51:33.566Z,24.80
2019-02-20T07:52:35.788Z,23.20
2019-02-20T07:53:39.742Z,25.20
2019-02-20T07:54:41.588Z,22.80
2019-02-20T07:55:43.626Z,19.80
2019-02-20T07:56:45.514Z,20.00
2019-02-20T07:57:48.287Z,22.00
2019-02-20T07:58:50.271Z,23.00
2019-02-20T07:59:52.098Z,23.40
2019-02-20T08:00:53.989Z,23.80
2019-02-20T08:01:56.472Z,23.80
2019-02-20T08:02:58.429Z,21.40
2019-02-20T08:04:00.112Z,19.40
2019-02-20T08:05:03.522Z,16.60
2019-02-20T08:06:06.353Z,22.60
2019-02-20T08:07:08.327Z,23.80
2019-02-20T08:08:12.049Z,19.20
2019-02-20T08:09:13.804Z,22.40
2019-02-20T08:10:16.031Z,24.40
2019-02-20T08:11:18.059Z,30.40
2019-02-20T08:12:20.471Z,23.80
2019-02-20T08:13:22.441Z,23.40
2019-02-20T08:14:24.653Z,20.60
2019-02-20T08:15:26.640Z,24.20
2019-02-20T08:16:28.550Z,23.20
2019-02-20T08:17:30.618Z,25.80
2019-02-20T08:18:32.305Z,21.00
2019-02-20T08:19:34.793Z,25.20
2019-02-20T08:20:36.726Z,22.20
2019-02-20T08:21:40.397Z,25.60
2019-02-20T08:22:42.355Z,22.60
2019-02-20T08:23:44.165Z,24.80
2019-02-20T08:24:46.109Z,20.60
2019-02-20T08:25:48.337Z,27.20
2019-02-20T08:26:50.244Z,23.20
2019-02-20T08:27:52.304Z,30.80
2019-02-20T08:28:54.488Z,23.80
2019-02-20T08:29:57.871Z,25.80
2019-02-20T08:30:59.833Z,23.40
2019-02-20T08:32:03.049Z,25.20
2019-02-20T08:33:05.219Z,32.40
2019-02-20T08:34:07.318Z,22.40
2019-02-20T08:35:11.289Z,26.60
2019-02-20T08:36:13.325Z,23.60
2019-02-20T08:37:16.151Z,22.80
2019-02-20T08:38:17.944Z,25.40
2019-02-20T08:39:20.185Z,23.40
2019-02-20T08:40:22.057Z,31.00
2019-02-20T08:41:25.820Z,28.20
2019-02-20T08:42:27.886Z,22.60
2019-02-20T08:43:29.815Z,24.80
2019-02-20T08:44:31.667Z,29.80
2019-02-20T08:45:33.829Z,27.40
2019-02-20T08:46:36.271Z,30.20
2019-02-20T08:47:38.215Z,25.60
2019-02-20T08:48:40.203Z,26.40
2019-02-20T08:49:43.262Z,25.40
2019-02-20T08:50:45.017Z,24.00
2019-02-20T08:51:49.540Z,30.60
2019-02-20T08:52:51.734Z,21.60
2019-02-20T08:53:53.961Z,22.20
2019-02-20T08:54:55.832Z,25.20
2019-02-20T08:55:58.189Z,24.60
2019-02-20T08:57:00.466Z,22.60
2019-02-20T08:58:02.392Z,23.00
2019-02-20T08:59:06.096Z,23.20
2019-02-20T09:00:12.310Z,20.20
2019-02-20T09:01:14.635Z,21.40
2019-02-20T09:02:17.047Z,21.00
2019-02-20T09:03:18.812Z,23.80
2019-02-20T09:04:20.860Z,21.80
2019-02-20T09:05:22.969Z,20.40
2019-02-20T09:06:24.888Z,23.40
2019-02-20T09:07:26.867Z,22.20
2019-02-20T09:08:28.794Z,24.60
2019-02-20T09:09:30.809Z,23.80
2019-02-20T09:10:32.908Z,24.60
2019-02-20T09:11:34.719Z,21.40
2019-02-20T09:12:36.679Z,26.20
2019-02-20T09:13:39.817Z,22.60
2019-02-20T09:14:41.871Z,26.00
2019-02-20T09:15:43.685Z,23.40
2019-02-20T09:16:45.625Z,27.80
2019-02-20T09:17:47.983Z,25.00
2019-02-20T09:18:49.977Z,23.60
2019-02-20T09:19:52.163Z,26.40
2019-02-20T09:20:54.113Z,23.00
2019-02-20T09:21:55.925Z,24.60
2019-02-20T09:22:57.959Z,23.40
2019-02-20T09:23:59.728Z,20.80
2019-02-20T09:25:01.639Z,32.60
2019-02-20T09:26:03.846Z,33.60
2019-02-20T09:27:05.723Z,27.00
2019-02-20T09:28:07.748Z,28.20
2019-02-20T09:29:10.713Z,28.00
2019-02-20T09:30:14.339Z,31.20
2019-02-20T09:31:16.538Z,31.40
2019-02-20T09:32:18.518Z,36.40
2019-02-20T09:33:20.294Z,30.40
2019-02-20T09:34:22.250Z,30.60
2019-02-20T09:35:24.216Z,30.20
2019-02-20T09:36:25.922Z,31.60
2019-02-20T09:37:27.721Z,31.60
2019-02-20T09:38:30.815Z,34.00
2019-02-20T09:39:35.097Z,27.80
2019-02-20T09:40:37.113Z,30.40
2019-02-20T09:41:39.826Z,33.20
2019-02-20T09:42:45.776Z,31.00
2019-02-20T09:43:48.864Z,35.40
2019-02-20T09:44:51.019Z,32.20
2019-02-20T09:45:55.670Z,31.00
2019-02-20T09:46:57.714Z,31.80
2019-02-20T09:47:59.502Z,27.60
2019-02-20T09:49:01.388Z,30.00
2019-02-20T09:50:06.557Z,31.40
2019-02-20T09:51:10.598Z,37.00
2019-02-20T09:52:12.913Z,35.60
2019-02-20T09:53:16.106Z,37.40
2019-02-20T09:54:18.195Z,27.00
2019-02-20T09:55:20.099Z,29.40
2019-02-20T09:56:22.071Z,33.60
2019-02-20T09:57:24.005Z,26.20
2019-02-20T09:58:26.449Z,34.40
2019-02-20T09:59:28.485Z,30.20
2019-02-20T10:00:30.295Z,29.80
2019-02-20T10:01:32.370Z,25.20
2019-02-20T10:02:34.713Z,29.40
2019-02-20T10:03:36.559Z,31.80
2019-02-20T10:04:38.374Z,30.00
2019-02-20T10:05:40.125Z,31.60
2019-02-20T10:06:42.011Z,29.00
2019-02-20T10:07:43.911Z,29.40
2019-02-20T10:08:45.959Z,30.40
2019-02-20T10:09:48.049Z,31.80
2019-02-20T10:10:49.975Z,31.20
2019-02-20T10:11:52.124Z,28.20
2019-02-20T10:12:54.291Z,26.80
2019-02-20T10:13:56.237Z,29.00
2019-02-20T10:14:58.279Z,23.80
2019-02-20T10:16:00.303Z,33.00
2019-02-20T10:17:02.107Z,30.60
2019-02-20T10:18:04.221Z,33.20
2019-02-20T10:19:06.212Z,26.20
2019-02-20T10:20:09.792Z,31.40
2019-02-20T10:21:11.700Z,31.80
2019-02-20T10:22:13.547Z,30.00
2019-02-20T10:23:15.424Z,24.80
2019-02-20T10:24:17.136Z,34.20
2019-02-20T10:25:19.008Z,31.00
2019-02-20T10:26:20.854Z,26.00
2019-02-20T10:27:22.859Z,27.20
2019-02-20T10:28:24.790Z,29.80
2019-02-20T10:29:26.700Z,24.40
2019-02-20T10:30:32.168Z,26.20
2019-02-20T10:31:34.106Z,29.80
2019-02-20T10:32:36.146Z,30.80
2019-02-20T10:33:38.838Z,25.80
2019-02-20T10:34:40.900Z,27.60
2019-02-20T10:35:42.913Z,23.00
2019-02-20T10:36:44.745Z,24.00
2019-02-20T10:37:46.810Z,28.40
2019-02-20T10:38:48.953Z,27.40
2019-02-20T10:39:50.689Z,29.40
2019-02-20T10:40:52.925Z,30.40
2019-02-20T10:41:54.846Z,25.00
2019-02-20T10:42:56.865Z,25.00
2019-02-20T10:43:58.920Z,28.60
2019-02-20T10:45:03.505Z,24.80
2019-02-20T10:46:05.887Z,20.40
2019-02-20T10:47:07.980Z,28.40
2019-02-20T10:48:10.022Z,19.60
2019-02-20T10:49:12.125Z,28.60
2019-02-20T10:50:14.628Z,23.80
2019-02-20T10:51:16.292Z,26.40
2019-02-20T10:52:18.223Z,22.00
2019-02-20T10:53:20.503Z,22.40
2019-02-20T10:54:22.372Z,25.60
2019-02-20T10:55:24.505Z,21.40
2019-02-20T10:56:26.300Z,22.00
2019-02-20T10:57:30.517Z,21.80
2019-02-20T10:58:32.529Z,28.80
2019-02-20T10:59:34.532Z,24.80
2019-02-20T11:00:36.711Z,23.00
2019-02-20T11:01:39.221Z,20.40
2019-02-20T11:02:41.315Z,22.60
2019-02-20T11:03:43.639Z,21.20
2019-02-20T11:04:47.243Z,23.00
2019-02-20T11:05:49.149Z,17.80
2019-02-20T11:06:51.179Z,20.40
2019-02-20T11:07:54.250Z,24.60
2019-02-20T11:08:56.237Z,24.60
2019-02-20T11:09:58.384Z,22.20
2019-02-20T11:11:00.456Z,17.80
2019-02-20T11:12:02.618Z,21.40
2019-02-20T11:13:04.810Z,21.60
2019-02-20T11:14:07.145Z,27.00
2019-02-20T11:15:09.723Z,24.60
2019-02-20T11:16:11.954Z,21.00
2019-02-20T11:17:15.382Z,22.60
2019-02-20T11:18:17.622Z,22.80
2019-02-20T11:19:21.370Z,18.00
2019-02-20T11:20:23.342Z,21.40
2019-02-20T11:21:24.991Z,21.20
2019-02-20T11:22:27.419Z,20.60
2019-02-20T11:23:29.262Z,22.20
2019-02-20T11:24:30.979Z,22.00
2019-02-20T11:25:33.942Z,24.80
2019-02-20T11:26:43.514Z,22.40
2019-02-20T11:27:40.135Z,26.20
2019-02-20T11:28:41.826Z,21.40
2019-02-20T11:29:43.762Z,27.60
2019-02-20T11:30:45.706Z,21.60
2019-02-20T11:31:47.842Z,20.40
2019-02-20T11:32:50.691Z,19.00
2019-02-20T11:33:53.134Z,19.80
2019-02-20T11:34:55.286Z,19.80
2019-02-20T11:35:57.194Z,20.20
2019-02-20T11:36:59.122Z,21.60
2019-02-20T11:38:00.979Z,21.80
2019-02-20T11:39:04.607Z,19.80
2019-02-20T11:40:09.112Z,21.20
2019-02-20T11:41:11.128Z,19.40
2019-02-20T11:42:12.933Z,16.20
2019-02-20T11:43:14.725Z,18.20
2019-02-20T11:44:21.071Z,17.00
2019-02-20T11:45:20.577Z,19.40
2019-02-20T11:46:22.427Z,20.80
2019-02-20T11:47:24.411Z,18.80
2019-02-20T11:48:26.452Z,18.60
2019-02-20T11:49:29.203Z,20.00
2019-02-20T11:50:31.548Z,17.80
2019-02-20T11:51:33.187Z,20.00
2019-02-20T11:52:38.340Z,17.60
2019-02-20T11:53:39.076Z,18.00
2019-02-20T11:54:41.058Z,19.20
2019-02-20T11:55:44.238Z,18.60
2019-02-20T11:56:46.247Z,20.00
2019-02-20T11:57:48.457Z,17.80
2019-02-20T11:58:50.407Z,17.00
2019-02-20T11:59:52.293Z,19.40
2019-02-20T12:00:55.470Z,17.00
2019-02-20T12:01:57.560Z,17.60
2019-02-20T12:03:00.467Z,21.40
2019-02-20T12:04:02.620Z,21.80
2019-02-20T12:05:05.396Z,20.00
2019-02-20T12:06:07.314Z,16.20
2019-02-20T12:07:09.420Z,19.20
2019-02-20T12:08:13.622Z,17.60
2019-02-20T12:09:15.630Z,16.20
2019-02-20T12:10:17.776Z,22.20
2019-02-20T12:11:19.838Z,17.80
2019-02-20T12:12:21.776Z,19.40
2019-02-20T12:13:23.909Z,16.60
2019-02-20T12:14:25.864Z,15.40
2019-02-20T12:15:27.790Z,21.00
2019-02-20T12:16:30.212Z,14.60
2019-02-20T12:17:33.304Z,17.00
2019-02-20T12:18:36.860Z,20.20
2019-02-20T12:19:39.399Z,14.80
2019-02-20T12:20:42.007Z,20.40
2019-02-20T12:21:44.399Z,15.00
2019-02-20T12:22:46.504Z,16.80
2019-02-20T12:23:48.656Z,16.40
2019-02-20T12:24:50.606Z,16.00
2019-02-20T12:25:54.344Z,20.00
2019-02-20T12:26:57.608Z,16.80
2019-02-20T12:28:00.917Z,14.80
2019-02-20T12:29:03.006Z,17.80
2019-02-20T12:30:08.835Z,17.00
2019-02-20T12:31:10.812Z,16.60
2019-02-20T12:32:13.109Z,16.20
2019-02-20T12:33:15.175Z,16.20
2019-02-20T12:34:17.025Z,21.00
2019-02-20T12:35:19.154Z,19.60
2019-02-20T12:36:21.127Z,17.20
2019-02-20T12:37:22.959Z,20.60
2019-02-20T12:38:24.942Z,18.40
2019-02-20T12:39:27.804Z,18.80
2019-02-20T12:40:30.343Z,18.80
2019-02-20T12:41:32.745Z,15.20
2019-02-20T12:42:36.731Z,18.00
2019-02-20T12:43:38.980Z,17.00
2019-02-20T12:44:40.917Z,15.80
2019-02-20T12:45:42.741Z,19.40
2019-02-20T12:46:44.958Z,18.60
2019-02-20T12:47:46.939Z,16.20
2019-02-20T12:48:48.799Z,20.80
2019-02-20T12:49:51.495Z,18.20
2019-02-20T12:50:53.593Z,18.40
2019-02-20T12:51:55.727Z,18.60
2019-02-20T12:52:57.736Z,15.20
2019-02-20T12:53:59.659Z,18.20
2019-02-20T12:55:01.941Z,19.00
2019-02-20T12:56:09.871Z,17.00
2019-02-20T12:57:08.149Z,19.00
2019-02-20T12:58:10.006Z,23.40
2019-02-20T12:59:11.982Z,20.20
2019-02-20T13:00:15.054Z,18.40
2019-02-20T13:01:17.454Z,20.20
2019-02-20T13:02:19.476Z,17.20
2019-02-20T13:03:21.368Z,19.40
2019-02-20T13:04:24.643Z,19.60
2019-02-20T13:05:27.277Z,18.60
2019-02-20T13:06:29.839Z,19.40
2019-02-20T13:07:33.171Z,18.40
2019-02-20T13:08:35.569Z,18.80
2019-02-20T13:09:37.481Z,20.40
2019-02-20T13:10:41.313Z,19.80
2019-02-20T13:11:44.165Z,22.20
2019-02-20T13:12:46.969Z,24.00
2019-02-20T13:13:49.183Z,23.00
2019-02-20T13:14:51.328Z,21.00
2019-02-20T13:15:53.337Z,23.80
2019-02-20T13:16:55.394Z,23.20
2019-02-20T13:17:57.640Z,21.60
2019-02-20T13:18:59.454Z,19.00
2019-02-20T13:20:01.600Z,23.60
2019-02-20T13:21:05.337Z,22.60
2019-02-20T13:22:07.438Z,22.80
2019-02-20T13:23:09.287Z,20.20
2019-02-20T13:24:11.160Z,21.60
2019-02-20T13:25:13.260Z,25.00
2019-02-20T13:26:15.189Z,23.40
2019-02-20T13:27:22.772Z,22.40
2019-02-20T13:28:23.115Z,20.00
2019-02-20T13:29:24.872Z,22.00